createdAt,value
2023-01-15T00:02:07.907Z,90.66
2023-01-15T00:04:35.101Z,91.05
2023-01-15T00:07:01.806Z,91.27
2023-01-15T00:09:28.522Z,90.35
2023-01-15T00:11:55.322Z,91.02
2023-01-15T00:14:22.051Z,90.72
2023-01-15T00:16:52.484Z,91.01
2023-01-15T00:19:19.305Z,90.79
2023-01-15T00:21:46.072Z,90.86
2023-01-15T00:24:31.223Z,90.52
2023-01-15T00:27:16.738Z,90.69
2023-01-15T00:29:43.675Z,90.62
2023-01-15T00:32:10.404Z,90.05
2023-01-15T00:34:37.135Z,90.26
2023-01-15T00:37:04.181Z,90.29
2023-01-15T00:39:30.965Z,90.73
2023-01-15T00:41:57.657Z,90.40
2023-01-15T00:44:24.405Z,90.54
2023-01-15T00:46:51.176Z,90.56
2023-01-15T00:49:17.980Z,90.35
2023-01-15T00:51:44.829Z,90.55
2023-01-15T00:54:11.801Z,90.89
2023-01-15T00:56:38.541Z,90.68
2023-01-15T00:59:05.461Z,91.20
2023-01-15T01:01:32.841Z,90.96
2023-01-15T01:03:59.890Z,91.07
2023-01-15T01:06:27.037Z,90.86
2023-01-15T01:08:53.764Z,91.19
2023-01-15T01:11:26.597Z,91.39
2023-01-15T01:13:56.444Z,91.53
2023-01-15T01:16:31.870Z,91.62
2023-01-15T01:19:00.533Z,91.69
2023-01-15T01:21:27.950Z,91.11
2023-01-15T01:23:55.085Z,91.78
2023-01-15T01:26:21.838Z,91.57
2023-01-15T01:28:50.155Z,91.90
2023-01-15T01:31:17.544Z,91.35
2023-01-15T01:33:44.540Z,91.16
2023-01-15T01:36:11.359Z,91.55
2023-01-15T01:38:38.099Z,91.66
2023-01-15T01:41:04.954Z,91.32
2023-01-15T01:43:32.140Z,91.79
2023-01-15T01:45:58.881Z,91.79
2023-01-15T01:48:33.632Z,91.36
2023-01-15T01:51:04.737Z,91.76
2023-01-15T01:53:32.706Z,91.35
2023-01-15T01:56:00.826Z,91.03
2023-01-15T01:58:32.237Z,91.31
2023-01-15T02:01:00.618Z,91.64
2023-01-15T02:03:32.756Z,90.81
2023-01-15T02:06:02.814Z,90.66
2023-01-15T02:08:32.308Z,91.15
2023-01-15T02:10:59.047Z,90.80
2023-01-15T02:13:37.763Z,90.77
2023-01-15T02:16:16.578Z,90.97
2023-01-15T02:18:51.348Z,90.81
2023-01-15T02:21:27.971Z,90.62
2023-01-15T02:24:16.905Z,90.71
2023-01-15T02:26:55.953Z,90.62
2023-01-15T02:29:42.508Z,90.73
2023-01-15T02:32:15.105Z,90.40
2023-01-15T02:34:50.602Z,90.27
2023-01-15T02:37:24.588Z,90.69
2023-01-15T02:39:52.528Z,90.63
2023-01-15T02:42:21.793Z,90.83
2023-01-15T02:44:52.285Z,90.27
2023-01-15T02:47:24.137Z,90.63
2023-01-15T02:49:54.727Z,90.45
2023-01-15T02:52:27.007Z,89.83
2023-01-15T02:55:00.406Z,89.97
2023-01-15T02:57:32.674Z,90.17
2023-01-15T03:00:03.203Z,89.86
2023-01-15T03:02:36.919Z,90.24
2023-01-15T03:05:18.170Z,89.58
2023-01-15T03:07:51.618Z,89.98
2023-01-15T03:10:19.377Z,89.86
2023-01-15T03:13:03.268Z,89.33
2023-01-15T03:16:00.334Z,89.73
2023-01-15T03:18:32.754Z,89.53
2023-01-15T03:21:05.689Z,89.62
2023-01-15T03:23:37.790Z,90.10
2023-01-15T03:26:04.602Z,89.70
2023-01-15T03:28:35.864Z,89.78
2023-01-15T03:31:02.689Z,90.04
2023-01-15T03:33:29.993Z,89.93
2023-01-15T03:35:59.550Z,89.90
2023-01-15T03:38:37.857Z,89.66
2023-01-15T03:41:17.023Z,89.57
2023-01-15T03:44:01.596Z,90.18
2023-01-15T03:47:03.260Z,90.03
2023-01-15T03:49:51.745Z,90.24
2023-01-15T03:52:32.784Z,89.82
2023-01-15T03:55:08.047Z,90.37
2023-01-15T03:57:38.638Z,89.31
2023-01-15T04:00:20.772Z,89.17
2023-01-15T04:02:48.628Z,89.76
2023-01-15T04:05:16.852Z,89.28
2023-01-15T04:07:44.730Z,88.76
2023-01-15T04:10:11.999Z,89.16
2023-01-15T04:12:38.703Z,89.20
2023-01-15T04:15:06.053Z,88.83
2023-01-15T04:17:32.768Z,88.85
2023-01-15T04:19:59.499Z,89.41
2023-01-15T04:22:26.212Z,88.84
2023-01-15T04:24:54.903Z,89.04
2023-01-15T04:27:21.881Z,88.95
2023-01-15T04:29:48.832Z,88.82
2023-01-15T04:32:15.651Z,89.17
2023-01-15T04:34:42.337Z,89.06
2023-01-15T04:37:09.071Z,88.87
2023-01-15T04:39:35.769Z,89.32
2023-01-15T04:42:21.424Z,88.99
2023-01-15T04:44:48.146Z,88.58
2023-01-15T04:47:15.003Z,88.82
2023-01-15T04:49:41.707Z,88.78
2023-01-15T04:52:08.416Z,89.14
2023-01-15T04:54:35.251Z,88.76
2023-01-15T04:57:01.932Z,88.89
2023-01-15T04:59:28.914Z,87.89
2023-01-15T05:02:04.686Z,88.68
2023-01-15T05:04:34.480Z,88.64
2023-01-15T05:07:02.694Z,88.71
2023-01-15T05:09:29.500Z,88.14
2023-01-15T05:11:56.299Z,88.25
2023-01-15T05:14:23.004Z,87.73
2023-01-15T05:16:49.700Z,88.33
2023-01-15T05:19:16.403Z,88.41
2023-01-15T05:21:44.238Z,88.17
2023-01-15T05:24:16.043Z,88.32
2023-01-15T05:26:43.705Z,88.36
2023-01-15T05:29:11.927Z,88.70
2023-01-15T05:31:39.782Z,88.55
2023-01-15T05:34:06.540Z,88.31
2023-01-15T05:36:33.389Z,88.37
2023-01-15T05:39:02.006Z,87.60
2023-01-15T05:41:48.608Z,88.38
2023-01-15T05:44:19.080Z,88.47
2023-01-15T05:46:46.694Z,88.35
2023-01-15T05:49:16.502Z,88.35
2023-01-15T05:51:43.921Z,88.03
2023-01-15T05:54:13.894Z,88.14
2023-01-15T05:56:40.824Z,88.56
2023-01-15T05:59:08.590Z,88.63
2023-01-15T06:01:36.219Z,88.67
2023-01-15T06:04:05.121Z,88.86
2023-01-15T06:06:32.854Z,88.70
2023-01-15T06:09:00.044Z,88.63
2023-01-15T06:11:26.852Z,88.51
2023-01-15T06:13:53.581Z,88.73
2023-01-15T06:16:20.379Z,88.81
2023-01-15T06:18:47.362Z,89.02
2023-01-15T06:21:14.759Z,89.04
2023-01-15T06:23:42.117Z,88.71
2023-01-15T06:26:19.882Z,88.70
2023-01-15T06:28:47.260Z,88.77
2023-01-15T06:31:17.145Z,88.93
2023-01-15T06:33:45.595Z,88.66
2023-01-15T06:36:22.918Z,88.38
2023-01-15T06:38:51.185Z,88.64
2023-01-15T06:41:40.663Z,88.74
2023-01-15T06:44:31.166Z,88.22
2023-01-15T06:47:16.366Z,89.00
2023-01-15T06:49:42.945Z,88.07
2023-01-15T06:52:09.484Z,88.57
2023-01-15T06:54:36.037Z,88.08
2023-01-15T06:57:02.663Z,88.69
2023-01-15T06:59:29.330Z,88.88
2023-01-15T07:01:55.909Z,88.61
2023-01-15T07:04:22.631Z,88.20
2023-01-15T07:06:49.143Z,88.32
2023-01-15T07:09:15.657Z,88.04
2023-01-15T07:11:50.884Z,88.08
2023-01-15T07:14:22.876Z,87.88
2023-01-15T07:16:50.229Z,88.09
2023-01-15T07:19:17.955Z,88.30
2023-01-15T07:21:45.107Z,87.95
2023-01-15T07:24:12.255Z,87.87
2023-01-15T07:26:38.958Z,87.79
2023-01-15T07:29:05.784Z,88.05
2023-01-15T07:31:32.631Z,87.98
2023-01-15T07:33:59.590Z,87.65
2023-01-15T07:36:26.360Z,87.63
2023-01-15T07:38:53.007Z,87.60
2023-01-15T07:41:38.060Z,87.00
2023-01-15T07:44:23.262Z,87.18
2023-01-15T07:47:08.365Z,86.48
2023-01-15T07:49:48.140Z,86.53
2023-01-15T07:52:17.591Z,87.21
2023-01-15T07:54:44.797Z,86.24
2023-01-15T07:57:13.675Z,86.65
2023-01-15T07:59:40.836Z,85.75
2023-01-15T08:02:07.490Z,85.68
2023-01-15T08:04:34.080Z,86.00
2023-01-15T08:07:01.910Z,85.11
2023-01-15T08:09:36.361Z,85.47
2023-01-15T08:12:22.304Z,85.97
2023-01-15T08:15:07.452Z,84.95
2023-01-15T08:17:35.511Z,85.08
2023-01-15T08:20:05.121Z,85.33
2023-01-15T08:22:32.149Z,85.05
2023-01-15T08:24:58.931Z,85.13
2023-01-15T08:27:26.422Z,85.43
2023-01-15T08:29:53.303Z,84.31
2023-01-15T08:32:19.990Z,83.89
2023-01-15T08:34:46.674Z,84.15
2023-01-15T08:37:13.400Z,84.20
2023-01-15T08:39:41.994Z,83.42
2023-01-15T08:42:08.698Z,83.04
2023-01-15T08:44:35.957Z,83.29
2023-01-15T08:47:03.080Z,83.08
2023-01-15T08:49:30.152Z,82.75
2023-01-15T08:51:56.876Z,82.70
2023-01-15T08:54:25.531Z,82.29
2023-01-15T08:56:52.518Z,81.81
2023-01-15T08:59:19.245Z,81.39
2023-01-15T09:01:46.084Z,81.77
2023-01-15T09:04:17.839Z,82.13
2023-01-15T09:06:45.368Z,81.59
2023-01-15T09:09:12.725Z,79.97
2023-01-15T09:11:40.945Z,80.18
2023-01-15T09:14:59.292Z,81.29
2023-01-15T09:16:57.776Z,78.46
2023-01-15T09:19:24.500Z,77.68
2023-01-15T09:21:51.205Z,78.84
2023-01-15T09:24:18.003Z,79.36
2023-01-15T09:26:44.672Z,77.81
2023-01-15T09:29:11.602Z,79.40
2023-01-15T09:31:38.289Z,77.68
2023-01-15T09:34:04.970Z,78.20
2023-01-15T09:36:34.299Z,76.39
2023-01-15T09:39:02.398Z,76.80
2023-01-15T09:42:07.778Z,76.54
2023-01-15T09:44:54.685Z,77.91
2023-01-15T09:47:36.495Z,78.25
2023-01-15T09:50:25.578Z,78.60
2023-01-15T09:53:22.599Z,78.95
2023-01-15T09:55:50.587Z,78.97
2023-01-15T09:58:21.773Z,78.93
2023-01-15T10:00:50.822Z,79.18
2023-01-15T10:03:37.103Z,78.50
2023-01-15T10:06:19.991Z,79.80
2023-01-15T10:08:48.919Z,79.39
2023-01-15T10:11:15.378Z,78.58
2023-01-15T10:13:46.597Z,77.79
2023-01-15T10:16:20.751Z,77.17
2023-01-15T10:18:47.420Z,78.17
2023-01-15T10:21:48.066Z,75.67
2023-01-15T10:24:26.882Z,75.34
2023-01-15T10:26:58.154Z,76.27
2023-01-15T10:29:47.522Z,76.01
2023-01-15T10:32:13.996Z,76.58
2023-01-15T10:35:03.704Z,75.27
2023-01-15T10:37:34.447Z,76.56
2023-01-15T10:40:22.356Z,75.90
2023-01-15T10:43:01.192Z,73.76
2023-01-15T10:45:33.685Z,74.63
2023-01-15T10:48:11.945Z,72.90
2023-01-15T10:50:38.685Z,73.52
2023-01-15T10:53:24.158Z,74.80
2023-01-15T10:55:55.023Z,75.22
2023-01-15T10:58:49.907Z,74.46
2023-01-15T11:01:21.712Z,74.05
2023-01-15T11:03:48.779Z,72.05
2023-01-15T11:06:17.722Z,71.74
2023-01-15T11:09:09.264Z,72.69
2023-01-15T11:11:59.059Z,73.12
2023-01-15T11:15:01.319Z,72.37
2023-01-15T11:17:55.543Z,73.03
2023-01-15T11:20:27.065Z,71.53
2023-01-15T11:22:55.527Z,70.44
2023-01-15T11:25:29.792Z,71.58
2023-01-15T11:27:59.503Z,72.77
2023-01-15T11:30:33.138Z,70.41
2023-01-15T11:33:04.196Z,68.84
2023-01-15T11:35:32.224Z,69.73
2023-01-15T11:38:16.938Z,70.12
2023-01-15T11:40:59.748Z,70.30
2023-01-15T11:43:47.766Z,70.70
2023-01-15T11:46:48.974Z,69.89
2023-01-15T11:49:39.233Z,71.45
2023-01-15T11:52:19.166Z,71.94
2023-01-15T11:54:49.565Z,75.81
2023-01-15T11:57:28.277Z,77.09
2023-01-15T11:59:55.093Z,78.56
2023-01-15T12:02:42.796Z,81.01
2023-01-15T12:05:36.380Z,81.27
2023-01-15T12:08:16.507Z,83.06
2023-01-15T12:11:21.272Z,83.41
2023-01-15T12:17:59.753Z,85.72
2023-01-15T12:20:29.564Z,85.76
2023-01-15T12:23:23.337Z,85.48
2023-01-15T12:26:03.479Z,86.10
2023-01-15T12:28:36.631Z,86.37
2023-01-15T12:31:11.217Z,85.93
2023-01-15T12:33:57.473Z,86.45
2023-01-15T12:36:51.835Z,86.90
2023-01-15T12:39:43.986Z,86.99
2023-01-15T12:42:35.963Z,86.48
2023-01-15T12:45:30.395Z,86.67
2023-01-15T12:48:00.157Z,86.83
2023-01-15T12:50:36.662Z,86.73
2023-01-15T12:53:19.855Z,85.73
2023-01-15T12:56:04.856Z,86.02
2023-01-15T12:58:40.444Z,84.44
2023-01-15T13:01:31.487Z,84.96
2023-01-15T13:04:23.066Z,84.22
2023-01-15T13:06:58.514Z,84.04
2023-01-15T13:09:37.837Z,84.07
2023-01-15T13:12:11.957Z,82.66
2023-01-15T13:14:38.604Z,81.97
2023-01-15T13:17:51.739Z,82.30
2023-01-15T13:20:33.428Z,82.04
2023-01-15T13:23:16.139Z,80.72
2023-01-15T13:25:57.098Z,79.27
2023-01-15T13:29:05.410Z,79.21
2023-01-15T13:31:58.683Z,79.51
2023-01-15T13:34:37.376Z,80.48
2023-01-15T13:37:11.988Z,78.52
2023-01-15T13:39:42.581Z,78.72
2023-01-15T13:42:35.321Z,78.14
2023-01-15T13:45:07.340Z,77.44
2023-01-15T13:47:38.457Z,77.70
2023-01-15T13:50:15.509Z,78.03
2023-01-15T13:52:42.032Z,77.52
2023-01-15T13:55:41.404Z,79.02
2023-01-15T13:58:24.645Z,78.56
2023-01-15T14:01:17.548Z,78.68
2023-01-15T14:04:02.421Z,78.33
2023-01-15T14:06:45.356Z,78.21
2023-01-15T14:09:22.493Z,79.18
2023-01-15T14:11:55.174Z,78.51
2023-01-15T14:14:37.925Z,77.56
2023-01-15T14:17:46.896Z,76.19
2023-01-15T14:20:50.331Z,77.75
2023-01-15T14:23:31.370Z,77.45
2023-01-15T14:26:27.765Z,75.78
2023-01-15T14:29:26.574Z,75.04
2023-01-15T14:32:03.569Z,75.14
2023-01-15T14:34:34.028Z,75.06
2023-01-15T14:37:08.021Z,74.12
2023-01-15T14:39:42.867Z,74.71
2023-01-15T14:42:30.342Z,74.23
2023-01-15T14:45:12.231Z,73.13
2023-01-15T14:47:50.595Z,74.47
2023-01-15T14:50:38.636Z,72.53
2023-01-15T14:53:11.334Z,72.61
2023-01-15T14:55:43.004Z,72.58
2023-01-15T14:58:48.015Z,72.51
2023-01-15T15:01:25.148Z,72.49
2023-01-15T15:04:10.051Z,72.32
2023-01-15T15:07:10.860Z,72.90
2023-01-15T15:09:41.829Z,71.68
2023-01-15T15:12:31.458Z,72.18
2023-01-15T15:15:23.057Z,73.39
2023-01-15T15:18:01.433Z,74.13
2023-01-15T15:20:43.387Z,73.20
2023-01-15T15:23:20.628Z,73.15
2023-01-15T15:29:00.542Z,73.19
2023-01-15T15:31:31.140Z,72.18
2023-01-15T15:33:58.809Z,74.03
2023-01-15T15:36:29.606Z,74.60
2023-01-15T15:39:02.090Z,73.20
2023-01-15T15:41:51.565Z,73.00
2023-01-15T15:44:47.118Z,72.85
2023-01-15T15:47:40.368Z,74.00
2023-01-15T15:50:29.253Z,75.61
2023-01-15T15:52:58.016Z,79.95
2023-01-15T15:55:38.061Z,82.37
2023-01-15T15:58:05.886Z,81.46
2023-01-15T16:00:41.340Z,83.74
2023-01-15T16:03:19.818Z,84.94
2023-01-15T16:06:03.903Z,85.55
2023-01-15T16:08:32.604Z,85.52
2023-01-15T16:11:02.629Z,85.93
2023-01-15T16:13:44.710Z,85.76
2023-01-15T16:16:13.310Z,86.18
2023-01-15T16:18:46.448Z,86.81
2023-01-15T16:21:26.936Z,86.74
2023-01-15T16:24:03.350Z,86.12
2023-01-15T16:26:35.667Z,86.35
2023-01-15T16:29:05.075Z,86.60
2023-01-15T16:31:36.284Z,86.39
2023-01-15T16:34:04.308Z,86.08
2023-01-15T16:36:39.535Z,87.18
2023-01-15T16:39:07.111Z,87.09
2023-01-15T16:41:39.775Z,87.65
2023-01-15T16:44:07.762Z,87.44
2023-01-15T16:46:39.208Z,88.42
2023-01-15T16:49:26.949Z,88.26
2023-01-15T16:51:57.009Z,88.62
2023-01-15T16:54:29.814Z,88.72
2023-01-15T16:57:27.071Z,89.06
2023-01-15T17:00:05.708Z,88.76
2023-01-15T17:02:44.296Z,89.54
2023-01-15T17:05:17.224Z,89.67
2023-01-15T17:07:49.658Z,90.08
2023-01-15T17:10:26.106Z,89.60
2023-01-15T17:12:56.177Z,90.00
2023-01-15T17:15:25.581Z,90.60
2023-01-15T17:17:54.133Z,89.77
2023-01-15T17:20:27.129Z,90.21
2023-01-15T17:22:56.152Z,90.72
2023-01-15T17:25:24.426Z,90.08
2023-01-15T17:27:51.120Z,90.37
2023-01-15T17:30:18.054Z,90.22
2023-01-15T17:32:44.862Z,90.45
2023-01-15T17:35:35.669Z,90.12
2023-01-15T17:38:04.819Z,90.53
2023-01-15T17:40:32.696Z,90.57
2023-01-15T17:42:59.596Z,90.55
2023-01-15T17:45:28.967Z,90.10
2023-01-15T17:47:55.898Z,89.68
2023-01-15T17:50:23.527Z,90.12
2023-01-15T17:52:52.203Z,89.71
2023-01-15T17:55:40.200Z,90.27
2023-01-15T17:58:34.053Z,90.57
2023-01-15T18:01:22.506Z,90.26
2023-01-15T18:04:12.946Z,89.83
2023-01-15T18:06:45.561Z,89.96
2023-01-15T18:09:14.250Z,90.16
2023-01-15T18:11:40.961Z,90.26
2023-01-15T18:14:07.761Z,90.44
2023-01-15T18:16:34.643Z,90.31
2023-01-15T18:19:01.354Z,90.43
2023-01-15T18:21:28.481Z,90.40
2023-01-15T18:23:56.089Z,90.36
2023-01-15T18:26:22.800Z,90.10
2023-01-15T18:28:50.627Z,89.63
2023-01-15T18:31:17.367Z,90.56
2023-01-15T18:33:44.065Z,89.92
2023-01-15T18:36:13.052Z,90.11
2023-01-15T18:38:43.690Z,89.87
2023-01-15T18:41:34.418Z,90.44
2023-01-15T18:44:24.963Z,89.70
2023-01-15T18:46:55.943Z,89.97
2023-01-15T18:49:22.781Z,89.41
2023-01-15T18:52:08.548Z,89.21
2023-01-15T18:54:39.079Z,89.33
2023-01-15T18:57:05.939Z,89.70
2023-01-15T18:59:40.257Z,89.42
2023-01-15T19:02:07.202Z,89.92
2023-01-15T19:04:34.094Z,90.22
2023-01-15T19:07:10.867Z,89.80
2023-01-15T19:09:37.794Z,89.22
2023-01-15T19:12:05.396Z,89.45
2023-01-15T19:14:52.064Z,89.35
2023-01-15T19:17:41.413Z,89.81
2023-01-15T19:20:10.815Z,89.52
2023-01-15T19:22:56.217Z,89.61
2023-01-15T19:25:23.594Z,89.71
2023-01-15T19:27:50.752Z,89.65
2023-01-15T19:30:17.998Z,89.52
2023-01-15T19:32:44.738Z,89.36
2023-01-15T19:35:11.685Z,89.94
2023-01-15T19:37:41.693Z,89.43
2023-01-15T19:40:21.835Z,89.21
2023-01-15T19:43:09.494Z,89.33
2023-01-15T19:45:58.019Z,89.34
2023-01-15T19:48:47.586Z,89.59
2023-01-15T19:51:16.013Z,89.91
2023-01-15T19:53:43.090Z,89.92
2023-01-15T19:56:09.903Z,89.77
2023-01-15T19:58:39.306Z,90.11
2023-01-15T20:01:06.306Z,90.18
2023-01-15T20:03:33.123Z,90.51
2023-01-15T20:05:59.822Z,90.51
2023-01-15T20:08:27.036Z,90.41
2023-01-15T20:10:53.810Z,90.53
2023-01-15T20:13:41.832Z,90.59
2023-01-15T20:16:21.514Z,90.24
2023-01-15T20:18:49.437Z,90.65
2023-01-15T20:21:16.265Z,90.45
2023-01-15T20:23:43.678Z,90.33
2023-01-15T20:26:13.118Z,90.22
2023-01-15T20:28:42.510Z,90.58
2023-01-15T20:31:19.061Z,90.22
2023-01-15T20:33:47.948Z,90.74
2023-01-15T20:36:15.115Z,90.25
2023-01-15T20:38:42.569Z,90.43
2023-01-15T20:41:29.550Z,90.42
2023-01-15T20:44:14.847Z,90.18
2023-01-15T20:46:42.688Z,90.11
2023-01-15T20:49:27.892Z,90.14
2023-01-15T20:51:56.160Z,90.37
2023-01-15T20:54:24.566Z,90.17
2023-01-15T20:56:51.659Z,90.18
2023-01-15T20:59:18.441Z,89.89
2023-01-15T21:01:45.249Z,89.72
2023-01-15T21:04:13.537Z,89.92
2023-01-15T21:06:40.764Z,89.76
2023-01-15T21:09:07.493Z,89.83
2023-01-15T21:11:34.388Z,89.49
2023-01-15T21:14:01.136Z,89.65
2023-01-15T21:16:27.872Z,90.21
2023-01-15T21:18:54.599Z,89.94
2023-01-15T21:21:22.176Z,90.20
2023-01-15T21:23:49.031Z,89.72
2023-01-15T21:26:16.348Z,89.57
2023-01-15T21:28:44.583Z,89.35
2023-01-15T21:31:12.812Z,89.39
2023-01-15T21:33:42.647Z,89.91
2023-01-15T21:36:11.397Z,89.31
2023-01-15T21:38:38.554Z,89.62
2023-01-15T21:41:15.230Z,89.53
2023-01-15T21:44:01.676Z,89.31
2023-01-15T21:46:29.111Z,89.06
2023-01-15T21:48:56.924Z,89.39
2023-01-15T21:51:25.478Z,89.38
2023-01-15T21:53:52.213Z,89.42
2023-01-15T21:56:18.947Z,89.34
2023-01-15T21:58:45.634Z,89.33
2023-01-15T22:01:14.945Z,89.13
2023-01-15T22:03:41.754Z,89.42
2023-01-15T22:06:10.184Z,89.25
2023-01-15T22:08:36.921Z,89.42
2023-01-15T22:11:09.880Z,89.20
2023-01-15T22:13:38.075Z,88.78
2023-01-15T22:16:06.811Z,89.00
2023-01-15T22:18:34.589Z,88.98
2023-01-15T22:21:03.930Z,89.08
2023-01-15T22:23:31.106Z,89.29
2023-01-15T22:25:57.825Z,89.08
2023-01-15T22:28:24.637Z,89.39
2023-01-15T22:30:51.564Z,89.17
2023-01-15T22:33:18.375Z,89.23
2023-01-15T22:35:45.192Z,89.75
2023-01-15T22:38:11.961Z,89.58
2023-01-15T22:40:38.632Z,89.57
2023-01-15T22:43:05.772Z,89.87
2023-01-15T22:45:32.475Z,89.62
2023-01-15T22:48:00.325Z,89.64
2023-01-15T22:50:27.046Z,90.00
2023-01-15T22:52:56.229Z,89.89
2023-01-15T22:55:22.923Z,89.74
2023-01-15T22:57:49.660Z,89.43
2023-01-15T23:00:17.111Z,89.68
2023-01-15T23:02:56.406Z,89.56
2023-01-15T23:05:24.129Z,89.66
2023-01-15T23:07:51.184Z,89.89
2023-01-15T23:10:18.051Z,89.41
2023-01-15T23:12:44.868Z,89.60
2023-01-15T23:15:13.884Z,89.61
2023-01-15T23:17:40.785Z,89.15
2023-01-15T23:20:09.444Z,89.44
2023-01-15T23:22:36.278Z,89.58
2023-01-15T23:25:03.670Z,89.58
2023-01-15T23:27:30.513Z,89.42
2023-01-15T23:29:57.222Z,89.40
2023-01-15T23:32:23.926Z,89.04
2023-01-15T23:34:50.875Z,88.98
2023-01-15T23:37:17.584Z,89.00
2023-01-15T23:39:44.289Z,88.76
2023-01-15T23:42:30.201Z,88.68
2023-01-15T23:45:15.404Z,88.88
2023-01-15T23:47:42.161Z,88.82
2023-01-15T23:50:09.520Z,88.35
2023-01-15T23:52:36.244Z,88.42
2023-01-15T23:55:02.957Z,87.99
2023-01-15T23:57:29.697Z,88.23
2023-01-15T23:59:56.390Z,88.07
